createdAt,value
2023-03-22T00:02:01.717Z,80.48
2023-03-22T00:04:28.608Z,79.76
2023-03-22T00:06:55.619Z,80.18
2023-03-22T00:09:22.506Z,79.73
2023-03-22T00:11:51.193Z,80.53
2023-03-22T00:14:18.439Z,80.75
2023-03-22T00:16:46.577Z,80.06
2023-03-22T00:19:13.440Z,79.89
2023-03-22T00:21:40.322Z,80.03
2023-03-22T00:24:07.562Z,79.75
2023-03-22T00:26:36.209Z,81.08
2023-03-22T00:29:03.119Z,80.66
2023-03-22T00:31:29.994Z,80.61
2023-03-22T00:33:57.700Z,81.45
2023-03-22T00:36:24.613Z,81.10
2023-03-22T00:38:52.271Z,81.25
2023-03-22T00:41:21.144Z,81.12
2023-03-22T00:43:48.510Z,81.91
2023-03-22T00:46:16.208Z,81.34
2023-03-22T00:48:43.365Z,80.54
2023-03-22T00:51:10.767Z,80.96
2023-03-22T00:53:37.654Z,81.71
2023-03-22T00:56:05.233Z,80.92
2023-03-22T00:58:32.371Z,81.82
2023-03-22T01:00:59.394Z,80.73
2023-03-22T01:03:26.361Z,80.46
2023-03-22T01:05:55.754Z,81.57
2023-03-22T01:08:23.337Z,81.11
2023-03-22T01:10:50.630Z,80.97
2023-03-22T01:13:18.100Z,80.60
2023-03-22T01:15:45.245Z,80.75
2023-03-22T01:18:12.194Z,81.24
2023-03-22T01:20:39.368Z,81.01
2023-03-22T01:23:06.529Z,81.32
2023-03-22T01:25:33.676Z,81.39
2023-03-22T01:28:02.999Z,81.62
2023-03-22T01:30:30.204Z,82.46
2023-03-22T01:32:57.142Z,82.00
2023-03-22T01:35:24.263Z,82.65
2023-03-22T01:37:51.107Z,82.73
2023-03-22T01:40:17.951Z,85.56
2023-03-22T01:42:45.041Z,84.61
2023-03-22T01:45:14.941Z,84.09
2023-03-22T01:47:43.153Z,84.57
2023-03-22T01:50:10.338Z,84.11
2023-03-22T01:52:37.863Z,84.26
2023-03-22T01:55:05.384Z,84.15
2023-03-22T01:57:33.761Z,84.15
2023-03-22T02:00:00.908Z,84.94
2023-03-22T02:02:31.159Z,84.63
2023-03-22T02:04:58.349Z,84.75
2023-03-22T02:07:28.226Z,84.40
2023-03-22T02:09:55.077Z,84.89
2023-03-22T02:12:22.283Z,84.51
2023-03-22T02:14:52.175Z,83.67
2023-03-22T02:17:22.080Z,84.18
2023-03-22T02:19:52.234Z,84.58
2023-03-22T02:22:22.072Z,84.60
2023-03-22T02:24:51.957Z,84.68
2023-03-22T02:27:22.145Z,84.82
2023-03-22T02:29:52.786Z,86.46
2023-03-22T02:32:22.677Z,85.92
2023-03-22T02:34:54.152Z,85.21
2023-03-22T02:37:24.267Z,85.79
2023-03-22T02:39:54.379Z,85.76
2023-03-22T02:42:27.779Z,84.91
2023-03-22T02:44:54.977Z,85.70
2023-03-22T02:47:25.694Z,85.37
2023-03-22T02:49:57.117Z,85.13
2023-03-22T02:52:27.106Z,85.40
2023-03-22T02:54:57.334Z,84.94
2023-03-22T02:57:27.218Z,84.19
2023-03-22T02:59:55.846Z,84.15
2023-03-22T03:02:23.751Z,83.63
2023-03-22T03:04:51.580Z,83.64
2023-03-22T03:07:22.149Z,83.80
2023-03-22T03:09:49.403Z,84.75
2023-03-22T03:12:19.765Z,83.73
2023-03-22T03:14:46.620Z,84.02
2023-03-22T03:17:14.743Z,83.74
2023-03-22T03:19:47.104Z,83.07
2023-03-22T03:22:16.941Z,84.44
2023-03-22T03:24:49.320Z,84.14
2023-03-22T03:27:17.865Z,84.26
2023-03-22T03:29:49.991Z,83.83
2023-03-22T03:32:19.941Z,84.72
2023-03-22T03:34:51.633Z,84.47
2023-03-22T03:37:22.219Z,84.17
2023-03-22T03:39:53.210Z,84.08
2023-03-22T03:42:22.172Z,84.81
2023-03-22T03:44:49.261Z,84.82
2023-03-22T03:47:16.486Z,85.22
2023-03-22T03:49:43.333Z,85.44
2023-03-22T03:52:10.760Z,85.40
2023-03-22T03:54:37.563Z,85.77
2023-03-22T03:57:04.374Z,85.94
2023-03-22T03:59:31.223Z,86.10
2023-03-22T04:01:58.125Z,86.49
2023-03-22T04:04:27.387Z,86.43
2023-03-22T04:06:56.996Z,86.75
2023-03-22T04:09:24.564Z,86.96
2023-03-22T04:11:51.823Z,87.65
2023-03-22T04:14:18.887Z,87.93
2023-03-22T04:16:45.772Z,87.60
2023-03-22T04:19:13.027Z,87.60
2023-03-22T04:21:39.859Z,88.28
2023-03-22T04:24:06.933Z,88.73
2023-03-22T04:26:33.966Z,89.11
2023-03-22T04:29:03.155Z,89.33
2023-03-22T04:31:31.104Z,89.32
2023-03-22T04:34:00.656Z,89.69
2023-03-22T04:36:31.520Z,90.03
2023-03-22T04:38:58.451Z,90.42
2023-03-22T04:41:25.460Z,90.03
2023-03-22T04:43:52.259Z,90.09
2023-03-22T04:46:21.563Z,90.91
2023-03-22T04:48:48.629Z,91.29
2023-03-22T04:51:15.893Z,91.96
2023-03-22T04:53:42.835Z,91.34
2023-03-22T04:56:11.163Z,91.74
2023-03-22T04:58:40.574Z,92.57
2023-03-22T05:01:08.278Z,92.42
2023-03-22T05:03:35.346Z,92.90
2023-03-22T05:06:02.798Z,92.50
2023-03-22T05:08:30.773Z,92.72
2023-03-22T05:10:59.352Z,92.95
2023-03-22T05:13:27.469Z,92.98
2023-03-22T05:15:54.969Z,92.91
2023-03-22T05:18:22.451Z,92.97
2023-03-22T05:20:49.305Z,93.14
2023-03-22T05:23:19.400Z,93.59
2023-03-22T05:25:47.079Z,93.69
2023-03-22T05:28:14.582Z,93.64
2023-03-22T05:30:42.237Z,94.04
2023-03-22T05:33:09.721Z,94.30
2023-03-22T05:35:37.507Z,94.23
2023-03-22T05:38:04.679Z,93.94
2023-03-22T05:40:31.772Z,93.88
2023-03-22T05:42:58.661Z,94.10
2023-03-22T05:45:25.982Z,94.33
2023-03-22T05:47:53.465Z,94.48
2023-03-22T05:50:21.778Z,94.31
2023-03-22T05:52:49.176Z,94.64
2023-03-22T05:55:18.052Z,94.61
2023-03-22T05:57:51.613Z,95.07
2023-03-22T06:00:19.346Z,94.95
2023-03-22T06:02:47.533Z,94.80
2023-03-22T06:05:15.296Z,95.01
2023-03-22T06:07:42.627Z,95.44
2023-03-22T06:10:11.612Z,95.60
2023-03-22T06:12:38.543Z,95.17
2023-03-22T06:15:05.899Z,95.76
2023-03-22T06:17:32.908Z,96.24
2023-03-22T06:19:59.921Z,96.83
2023-03-22T06:22:26.824Z,97.69
2023-03-22T06:24:53.697Z,96.96
2023-03-22T06:27:20.577Z,96.82
2023-03-22T06:29:51.128Z,97.32
2023-03-22T06:32:18.054Z,97.22
2023-03-22T06:34:45.043Z,97.24
2023-03-22T06:37:11.896Z,96.73
2023-03-22T06:39:38.736Z,96.91
2023-03-22T06:42:05.989Z,97.62
2023-03-22T06:44:32.879Z,97.92
2023-03-22T06:46:59.738Z,97.02
2023-03-22T06:49:28.142Z,96.61
2023-03-22T06:51:55.091Z,97.27
2023-03-22T06:54:22.112Z,97.57
2023-03-22T06:56:49.132Z,97.33
2023-03-22T06:59:16.026Z,96.49
2023-03-22T07:01:43.110Z,96.27
2023-03-22T07:04:10.291Z,96.09
2023-03-22T07:06:37.249Z,96.73
2023-03-22T07:09:04.137Z,96.76
2023-03-22T07:11:31.009Z,96.93
2023-03-22T07:13:58.374Z,96.19
2023-03-22T07:16:25.424Z,95.40
2023-03-22T07:18:52.382Z,95.16
2023-03-22T07:21:19.303Z,94.96
2023-03-22T07:23:46.183Z,94.59
2023-03-22T07:26:13.733Z,94.76
2023-03-22T07:28:44.808Z,94.06
2023-03-22T07:31:12.232Z,94.45
2023-03-22T07:33:39.590Z,94.62
2023-03-22T07:36:07.331Z,94.50
2023-03-22T07:38:34.788Z,94.44
2023-03-22T07:41:01.810Z,94.65
2023-03-22T07:43:28.744Z,94.49
2023-03-22T07:45:55.857Z,94.72
2023-03-22T07:48:23.312Z,94.87
2023-03-22T07:50:50.539Z,94.95
2023-03-22T07:53:17.603Z,96.06
2023-03-22T07:55:44.477Z,95.45
2023-03-22T07:58:11.333Z,95.65
2023-03-22T08:00:38.531Z,94.38
2023-03-22T08:03:06.197Z,94.77
2023-03-22T08:05:33.307Z,95.60
2023-03-22T08:08:00.272Z,95.05
2023-03-22T08:10:27.195Z,94.56
2023-03-22T08:12:54.281Z,95.41
2023-03-22T08:15:22.635Z,95.09
2023-03-22T08:17:50.268Z,94.37
2023-03-22T08:20:18.698Z,95.23
2023-03-22T08:22:46.158Z,95.85
2023-03-22T08:25:13.135Z,95.58
2023-03-22T08:27:40.263Z,95.63
2023-03-22T08:30:07.854Z,95.76
2023-03-22T08:32:35.191Z,95.89
2023-03-22T08:35:02.202Z,95.76
2023-03-22T08:37:29.211Z,95.94
2023-03-22T08:39:56.741Z,95.99
2023-03-22T08:42:23.663Z,96.69
2023-03-22T08:44:52.631Z,96.85
2023-03-22T08:47:19.624Z,96.90
2023-03-22T08:49:46.603Z,96.40
2023-03-22T08:52:13.822Z,96.34
2023-03-22T08:54:41.669Z,96.32
2023-03-22T08:57:09.697Z,96.70
2023-03-22T08:59:36.706Z,97.38
2023-03-22T09:02:05.507Z,97.23
2023-03-22T09:04:32.675Z,96.98
2023-03-22T09:06:59.655Z,97.87
2023-03-22T09:09:26.612Z,98.32
2023-03-22T09:11:53.499Z,98.75
2023-03-22T09:14:20.428Z,98.97
2023-03-22T09:16:47.912Z,98.59
2023-03-22T09:19:14.856Z,98.27
2023-03-22T09:21:41.812Z,98.52
2023-03-22T09:24:09.065Z,98.73
2023-03-22T09:26:37.433Z,99.36
2023-03-22T09:29:04.676Z,98.81
2023-03-22T09:31:31.731Z,98.15
2023-03-22T09:33:59.865Z,98.11
2023-03-22T09:36:26.795Z,98.05
2023-03-22T09:38:54.180Z,97.02
2023-03-22T09:41:21.846Z,96.40
2023-03-22T09:43:52.187Z,96.39
2023-03-22T09:46:24.859Z,95.24
2023-03-22T09:48:52.253Z,94.39
2023-03-22T09:51:27.501Z,94.85
2023-03-22T09:53:54.909Z,94.19
2023-03-22T09:56:25.310Z,93.18
2023-03-22T09:58:57.137Z,92.93
2023-03-22T10:01:28.800Z,92.00
2023-03-22T10:03:57.820Z,91.90
2023-03-22T10:06:28.942Z,92.49
2023-03-22T10:08:58.113Z,91.92
2023-03-22T10:11:26.654Z,91.88
2023-03-22T10:13:56.985Z,91.27
2023-03-22T10:16:27.451Z,91.17
2023-03-22T10:18:57.461Z,90.39
2023-03-22T10:21:24.820Z,90.19
2023-03-22T10:23:56.997Z,90.73
2023-03-22T10:26:29.781Z,91.38
2023-03-22T10:29:02.120Z,90.90
2023-03-22T10:31:30.808Z,90.66
2023-03-22T10:34:00.216Z,90.63
2023-03-22T10:36:31.448Z,89.96
2023-03-22T10:39:02.353Z,90.51
2023-03-22T10:41:30.424Z,89.18
2023-03-22T10:43:59.239Z,89.36
2023-03-22T10:46:29.080Z,90.17
2023-03-22T10:48:59.306Z,89.90
2023-03-22T10:51:29.403Z,88.95
2023-03-22T10:53:58.832Z,87.91
2023-03-22T10:56:26.055Z,87.01
2023-03-22T10:58:55.232Z,86.50
2023-03-22T11:01:26.050Z,85.31
2023-03-22T11:03:55.914Z,83.08
2023-03-22T11:06:26.532Z,81.48
2023-03-22T11:08:57.799Z,77.35
2023-03-22T11:11:27.996Z,77.33
2023-03-22T11:14:02.707Z,76.48
2023-03-22T11:16:31.365Z,76.68
2023-03-22T11:19:01.600Z,75.61
2023-03-22T11:21:30.939Z,74.92
2023-03-22T11:24:01.776Z,76.53
2023-03-22T11:26:30.580Z,75.40
2023-03-22T11:29:03.104Z,74.02
2023-03-22T11:31:48.056Z,74.73
2023-03-22T11:34:18.102Z,74.12
2023-03-22T11:39:16.111Z,73.56
2023-03-22T11:41:45.708Z,73.79
2023-03-22T11:44:14.185Z,72.95
2023-03-22T11:46:49.388Z,72.75
2023-03-22T11:49:18.274Z,72.42
2023-03-22T11:51:46.273Z,71.96
2023-03-22T11:54:17.306Z,73.13
2023-03-22T11:56:46.827Z,72.76
2023-03-22T11:59:14.167Z,72.56
2023-03-22T12:01:44.550Z,73.38
2023-03-22T12:04:14.745Z,73.72
2023-03-22T12:06:43.160Z,72.45
2023-03-22T12:09:17.844Z,72.34
2023-03-22T12:11:47.811Z,72.25
2023-03-22T12:14:16.269Z,72.75
2023-03-22T12:16:46.826Z,73.39
2023-03-22T12:19:20.351Z,73.74
2023-03-22T12:21:49.541Z,73.14
2023-03-22T12:24:25.150Z,73.50
2023-03-22T12:26:54.685Z,73.61
2023-03-22T12:29:22.094Z,74.50
2023-03-22T12:31:57.523Z,74.09
2023-03-22T12:34:29.622Z,73.04
2023-03-22T12:36:57.964Z,72.93
2023-03-22T12:39:25.564Z,72.39
2023-03-22T12:41:54.753Z,72.73
2023-03-22T12:44:23.563Z,74.02
2023-03-22T12:46:54.291Z,71.84
2023-03-22T12:49:22.212Z,73.14
2023-03-22T12:51:50.918Z,72.87
2023-03-22T12:54:20.032Z,72.42
2023-03-22T12:56:47.084Z,73.02
2023-03-22T12:59:17.885Z,71.98
2023-03-22T13:01:51.411Z,71.86
2023-03-22T13:04:21.772Z,70.52
2023-03-22T13:06:52.023Z,71.90
2023-03-22T13:09:20.929Z,70.76
2023-03-22T13:11:49.834Z,69.31
2023-03-22T13:14:20.919Z,69.80
2023-03-22T13:16:50.523Z,71.33
2023-03-22T13:19:19.447Z,70.69
2023-03-22T13:21:49.169Z,70.63
2023-03-22T13:24:18.594Z,68.63
2023-03-22T13:26:49.790Z,68.80
2023-03-22T13:29:19.236Z,68.31
2023-03-22T13:31:55.475Z,68.85
2023-03-22T13:34:32.178Z,67.90
2023-03-22T13:37:04.187Z,68.08
2023-03-22T13:39:35.066Z,68.61
2023-03-22T13:42:07.414Z,68.96
2023-03-22T13:44:37.723Z,68.19
2023-03-22T13:47:08.180Z,69.68
2023-03-22T13:49:39.007Z,69.47
2023-03-22T13:52:07.824Z,68.79
2023-03-22T13:54:41.149Z,68.14
2023-03-22T13:57:11.368Z,67.99
2023-03-22T13:59:49.123Z,68.54
2023-03-22T14:02:24.802Z,68.84
2023-03-22T14:04:56.494Z,68.51
2023-03-22T14:07:26.734Z,68.22
2023-03-22T14:09:56.215Z,68.30
2023-03-22T14:12:28.301Z,68.57
2023-03-22T14:14:57.781Z,70.69
2023-03-22T14:17:28.047Z,70.07
2023-03-22T14:19:56.982Z,70.03
2023-03-22T14:52:13.568Z,69.75
2023-03-22T14:54:43.230Z,70.39
2023-03-22T14:57:13.388Z,68.85
2023-03-22T14:59:42.910Z,69.20
2023-03-22T15:02:13.477Z,69.63
2023-03-22T15:04:42.017Z,69.13
2023-03-22T15:07:10.575Z,68.85
2023-03-22T15:09:38.003Z,69.65
2023-03-22T15:12:06.190Z,69.20
2023-03-22T15:14:34.918Z,68.54
2023-03-22T15:17:02.490Z,69.29
2023-03-22T15:19:34.281Z,69.80
2023-03-22T15:22:04.657Z,69.28
2023-03-22T15:24:35.055Z,70.50
2023-03-22T15:27:03.722Z,70.72
2023-03-22T15:29:36.432Z,70.06
2023-03-22T15:32:04.992Z,70.93
2023-03-22T15:34:33.831Z,70.07
2023-03-22T15:37:02.116Z,70.71
2023-03-22T15:39:33.560Z,71.19
2023-03-22T15:42:03.910Z,70.72
2023-03-22T15:44:33.540Z,70.00
2023-03-22T15:47:09.568Z,71.10
2023-03-22T15:49:39.156Z,71.30
2023-03-22T15:52:10.035Z,71.33
2023-03-22T15:54:41.635Z,72.11
2023-03-22T15:57:11.465Z,70.85
2023-03-22T15:59:42.024Z,70.13
2023-03-22T16:02:18.445Z,70.28
2023-03-22T16:04:46.202Z,71.33
2023-03-22T16:07:13.551Z,71.92
2023-03-22T16:09:40.758Z,72.08
2023-03-22T16:12:11.119Z,69.91
2023-03-22T16:14:40.113Z,69.88
2023-03-22T16:17:09.571Z,70.02
2023-03-22T16:19:37.393Z,70.15
2023-03-22T16:22:05.411Z,69.47
2023-03-22T16:24:32.755Z,70.71
2023-03-22T16:27:00.298Z,70.42
2023-03-22T16:29:27.873Z,70.98
2023-03-22T16:31:56.264Z,70.32
2023-03-22T16:34:24.551Z,70.48
2023-03-22T16:36:52.125Z,71.36
2023-03-22T16:39:19.882Z,73.12
2023-03-22T16:41:47.220Z,74.14
2023-03-22T16:44:18.105Z,72.21
2023-03-22T16:46:46.116Z,72.58
2023-03-22T16:49:13.658Z,72.68
2023-03-22T16:51:41.156Z,73.33
2023-03-22T16:54:10.577Z,72.80
2023-03-22T16:56:37.936Z,72.73
2023-03-22T16:59:05.544Z,72.52
2023-03-22T17:01:33.342Z,73.33
2023-03-22T17:04:01.324Z,73.03
2023-03-22T17:06:34.994Z,73.56
2023-03-22T17:09:02.515Z,74.55
2023-03-22T17:11:30.249Z,75.28
2023-03-22T17:14:01.174Z,75.05
2023-03-22T17:16:29.491Z,75.51
2023-03-22T17:18:57.803Z,75.97
2023-03-22T17:21:25.063Z,77.19
2023-03-22T17:23:52.227Z,77.08
2023-03-22T17:26:19.393Z,77.16
2023-03-22T17:28:46.976Z,77.79
2023-03-22T17:31:15.122Z,78.13
2023-03-22T17:33:42.389Z,77.33
2023-03-22T17:36:10.932Z,77.63
2023-03-22T17:41:07.070Z,77.72
2023-03-22T17:43:34.466Z,78.75
2023-03-22T17:46:49.719Z,78.21
2023-03-22T17:48:48.775Z,78.25
2023-03-22T17:51:16.246Z,78.74
2023-03-22T17:54:27.130Z,80.10
2023-03-22T17:57:01.141Z,79.61
2023-03-22T17:59:17.806Z,79.77
2023-03-22T18:01:45.276Z,79.30
2023-03-22T18:04:12.684Z,80.91
2023-03-22T18:06:39.975Z,80.85
2023-03-22T18:09:07.277Z,81.33
2023-03-22T18:11:34.617Z,81.41
2023-03-22T18:14:13.844Z,81.96
2023-03-22T18:16:52.695Z,81.22
2023-03-22T18:19:21.146Z,82.02
2023-03-22T18:21:52.553Z,83.13
2023-03-22T18:24:19.800Z,83.19
2023-03-22T18:27:04.969Z,84.72
2023-03-22T18:29:33.990Z,85.02
2023-03-22T18:32:12.203Z,85.95
2023-03-22T18:34:45.652Z,86.47
2023-03-22T18:37:13.901Z,86.82
2023-03-22T18:40:24.471Z,85.69
2023-03-22T18:42:41.105Z,86.44
2023-03-22T18:45:16.244Z,87.11
2023-03-22T18:47:44.082Z,86.38
2023-03-22T18:50:12.859Z,86.45
2023-03-22T18:55:29.831Z,86.42
2023-03-22T18:58:03.291Z,87.15
2023-03-22T19:00:30.783Z,86.75
2023-03-22T19:02:58.151Z,87.12
2023-03-22T19:05:25.973Z,87.15
2023-03-22T19:08:14.542Z,87.83
2023-03-22T19:10:40.914Z,87.51
2023-03-22T19:13:08.230Z,87.24
2023-03-22T19:15:46.240Z,86.69
2023-03-22T19:18:19.021Z,85.71
2023-03-22T19:23:16.521Z,86.26
2023-03-22T19:25:43.789Z,84.85
2023-03-22T19:28:11.118Z,84.32
2023-03-22T19:30:38.529Z,83.80
2023-03-22T19:33:30.088Z,84.25
2023-03-22T19:35:53.349Z,84.05
2023-03-22T19:38:21.037Z,83.77
2023-03-22T19:41:33.564Z,83.48
2023-03-22T19:43:38.398Z,82.54
2023-03-22T19:46:10.026Z,83.24
2023-03-22T19:48:37.594Z,81.67
2023-03-22T19:51:05.020Z,82.07
2023-03-22T19:54:12.178Z,82.03
2023-03-22T19:56:19.744Z,82.00
2023-03-22T19:58:47.446Z,82.09
2023-03-22T20:01:14.784Z,81.77
2023-03-22T20:03:43.734Z,82.22
2023-03-22T20:06:11.735Z,81.44
2023-03-22T20:08:39.312Z,80.22
2023-03-22T20:11:15.110Z,80.66
2023-03-22T20:13:53.173Z,79.51
2023-03-22T20:16:23.610Z,80.31
2023-03-22T20:18:50.718Z,80.45
2023-03-22T20:21:18.210Z,79.99
2023-03-22T20:23:45.334Z,80.03
2023-03-22T20:26:12.532Z,80.14
2023-03-22T20:28:39.927Z,79.36
2023-03-22T20:31:08.705Z,81.02
2023-03-22T20:33:36.901Z,79.72
2023-03-22T20:36:04.607Z,80.10
2023-03-22T20:38:32.226Z,79.98
2023-03-22T20:41:01.197Z,79.82
2023-03-22T20:43:28.712Z,79.49
2023-03-22T20:45:56.240Z,79.87
2023-03-22T20:48:23.923Z,79.43
2023-03-22T20:50:52.606Z,81.01
2023-03-22T20:53:19.957Z,81.31
2023-03-22T20:55:48.869Z,81.02
2023-03-22T20:58:17.829Z,81.49
2023-03-22T21:00:45.840Z,79.77
2023-03-22T21:03:14.033Z,80.46
2023-03-22T21:05:42.531Z,80.16
2023-03-22T21:08:10.845Z,81.65
2023-03-22T21:10:38.299Z,80.75
2023-03-22T21:13:06.306Z,81.11
2023-03-22T21:15:33.860Z,81.08
2023-03-22T21:18:01.088Z,81.27
2023-03-22T21:20:32.740Z,80.70
2023-03-22T21:23:00.614Z,81.16
2023-03-22T21:25:31.144Z,81.69
2023-03-22T21:27:58.415Z,81.79
2023-03-22T21:30:26.500Z,82.68
2023-03-22T21:32:53.662Z,82.78
2023-03-22T21:35:22.009Z,82.93
2023-03-22T21:37:49.325Z,82.37
2023-03-22T21:40:22.287Z,82.55
2023-03-22T21:42:54.496Z,82.22
2023-03-22T21:45:21.943Z,81.62
2023-03-22T21:47:54.002Z,81.27
2023-03-22T21:50:22.112Z,81.54
2023-03-22T21:52:49.351Z,81.75
2023-03-22T21:55:19.074Z,81.19
2023-03-22T21:57:46.244Z,81.47
2023-03-22T22:00:19.927Z,80.69
2023-03-22T22:02:48.759Z,80.59
2023-03-22T22:05:18.706Z,80.32
2023-03-22T22:07:48.014Z,80.17
2023-03-22T22:10:15.701Z,80.86
2023-03-22T22:12:42.949Z,80.04
2023-03-22T22:15:10.502Z,81.29
2023-03-22T22:17:37.680Z,80.67
2023-03-22T22:20:11.987Z,79.97
2023-03-22T22:22:41.651Z,79.81
2023-03-22T22:25:10.914Z,80.74
2023-03-22T22:27:38.541Z,80.85
2023-03-22T22:30:07.475Z,79.54
2023-03-22T22:32:36.661Z,80.68
2023-03-22T22:35:04.062Z,81.59
2023-03-22T22:37:31.561Z,81.90
2023-03-22T22:39:58.982Z,82.37
2023-03-22T22:42:26.126Z,82.70
2023-03-22T22:44:53.508Z,81.49
2023-03-22T22:47:20.671Z,81.02
2023-03-22T22:49:48.221Z,81.30
2023-03-22T22:52:15.893Z,80.56
2023-03-22T22:54:43.093Z,81.18
2023-03-22T22:57:10.541Z,81.39
2023-03-22T22:59:37.776Z,81.39
2023-03-22T23:02:04.894Z,81.06
2023-03-22T23:04:32.487Z,82.21
2023-03-22T23:06:59.606Z,82.09
2023-03-22T23:09:27.720Z,83.42
2023-03-22T23:11:55.770Z,84.99
2023-03-22T23:14:30.722Z,84.19
2023-03-22T23:16:59.330Z,84.73
2023-03-22T23:19:27.880Z,85.23
2023-03-22T23:22:03.580Z,84.45
2023-03-22T23:24:31.404Z,83.14
2023-03-22T23:26:59.819Z,82.32
2023-03-22T23:29:27.565Z,82.42
2023-03-22T23:31:54.596Z,80.92
2023-03-22T23:34:22.583Z,81.25
2023-03-22T23:36:50.290Z,78.95
2023-03-22T23:39:19.081Z,78.68
2023-03-22T23:41:46.907Z,79.40
2023-03-22T23:44:14.316Z,77.60
2023-03-22T23:46:42.298Z,78.10
2023-03-22T23:49:09.649Z,79.38
2023-03-22T23:51:38.594Z,79.66
2023-03-22T23:54:06.823Z,79.09
2023-03-22T23:56:33.916Z,78.94
2023-03-22T23:59:01.737Z,79.44
